Aviation Digital Data Service (ADDS)

Output produced by METARs form (1202 UTC 25 June 2019)
found at http://www.aviationweather.gov/metar/data/
 
Forecast for: LFKJ (AJACCIO/CAMPO OR, FR)
Text: TAF LFKJ 250800Z 2509/2609 24005KT CAVOK
Forecast period: 0900 UTC 25 June 2019 to 0900 UTC 26 June 2019
Forecast type: FROM: standard forecast or significant change
Winds: from the WSW (240 degrees) at 6 MPH (5 knots; 2.6 m/s)
Visibility: 6 or more miles 10+ km)
Ceiling: unknown
Clouds: missing
Weather: NSW  (no significant weather)
Text: BECMG 2509/2511 24012KT
Forecast period: 0900 to 1800 UTC 25 June 2019
Forecast type: BECOMING: Conditions expected to become as follows by 1100 UTC 25 June 2019
Winds: from the WSW (240 degrees) at 14 MPH (12 knots; 6.2 m/s)
Visibility: 6 or more miles 10+ km)
Ceiling: unknown
Clouds: missing
Weather: NSW  (no significant weather)
Text: BECMG 2518/2521 06004KT
Forecast period: 1800 UTC 25 June 2019 to 0900 UTC 26 June 2019
Forecast type: BECOMING: Conditions expected to become as follows by 2100 UTC 25 June 2019
Winds: from the ENE (60 degrees) at 5 MPH (4 knots; 2.1 m/s)
Visibility: 6 or more miles 10+ km)
Ceiling: unknown
Clouds: missing
Weather: NSW  (no significant weather)